Aviation Digital Data Service (ADDS)

Output produced by METARs form (0551 UTC 30 August 2015)
found at http://aviationweather.gov/adds/metars/
 
KLBE 300534Z 3006/3106 00000KT P6SM SCT060 
     FM301900 25008KT P6SM VCSH BKN050 
     FM310300 VRB03KT P6SM BKN050 AMD NOT SKED TIL 301100